Time;durP1;ratioP1;P1;durP2;ratioP2;P2;SDS_P1;SDS_P2;PMS_P1;PMS_P2;Temp;Humidity;BMP_temperature;BMP_pressure;BME280_temperature;BME280_humidity;BME280_pressure;Samples;Min_cycle;Max_cycle;Signal;HPM_P1;HPM_P2
2021/08/28 00:02:38;;;;;;;44.30;40.87;;;;;;;13.17;100.00;102557.66;2001532;71;32932;-74
2021/08/28 00:08:23;;;;;;;43.80;40.70;;;;;;;13.21;100.00;102563.55;1983110;71;32843;-76
2021/08/28 00:13:48;;;;;;;43.80;40.07;;;;;;;13.16;100.00;102565.73;1972126;73;32914;-75
2021/08/28 00:19:34;;;;;;;44.27;41.07;;;;;;;13.10;100.00;102572.34;2016603;71;32891;-76
2021/08/28 00:25:00;;;;;;;45.10;41.70;;;;;;;13.09;100.00;102569.80;1972104;73;33395;-74
2021/08/28 00:30:44;;;;;;;45.27;41.60;;;;;;;13.15;100.00;102562.64;2014299;71;32910;-72
2021/08/28 00:36:30;;;;;;;44.53;41.27;;;;;;;13.09;100.00;102569.80;2016215;71;33389;-72
2021/08/28 00:42:14;;;;;;;45.80;42.17;;;;;;;13.05;100.00;102566.66;2002123;71;32811;-76
2021/08/28 00:47:40;;;;;;;44.70;41.30;;;;;;;13.06;100.00;102565.56;1972352;73;33461;-76
2021/08/28 00:53:07;;;;;;;45.93;42.40;;;;;;;12.96;100.00;102565.45;1972422;73;33399;-75
2021/08/28 00:58:52;;;;;;;44.93;41.33;;;;;;;12.96;100.00;102563.21;2015876;71;32937;-77
2021/08/28 01:04:32;;;;;;;43.83;40.50;;;;;;;12.93;100.00;102565.95;2102121;68;32135;-75
2021/08/28 01:10:01;;;;;;;44.47;41.27;;;;;;;12.87;100.00;102565.61;1971758;73;33030;-73
2021/08/28 01:15:30;;;;;;;44.97;41.40;;;;;;;12.91;100.00;102562.59;1972151;73;32911;-76
2021/08/28 01:21:02;;;;;;;43.87;40.10;;;;;;;12.82;100.00;102561.91;1972116;73;32913;-76
2021/08/28 01:26:31;;;;;;;44.57;41.20;;;;;;;12.70;100.00;102569.84;1972097;72;32918;-76
2021/08/28 01:32:11;;;;;;;44.50;41.33;;;;;;;12.55;100.00;102568.77;1971767;73;32975;-73
2021/08/28 01:37:38;;;;;;;44.63;41.60;;;;;;;12.61;100.00;102568.60;1972007;73;33413;-75
2021/08/28 01:43:07;;;;;;;43.83;40.23;;;;;;;12.86;100.00;102558.34;1971777;73;32975;-75
2021/08/28 01:48:51;;;;;;;44.50;41.23;;;;;;;12.67;100.00;102566.16;2016235;71;32920;-76
2021/08/28 01:54:17;;;;;;;44.90;41.40;;;;;;;12.73;100.00;102567.93;1972317;73;32918;-76
2021/08/28 02:00:04;;;;;;;43.97;40.57;;;;;;;12.52;100.00;102562.32;2014294;71;32922;-74
2021/08/28 02:05:36;;;;;;;43.93;40.70;;;;;;;12.64;100.00;102571.41;1972121;73;32935;-76
2021/08/28 02:11:06;;;;;;;45.20;41.83;;;;;;;12.52;100.00;102574.86;1972224;73;33483;-76
2021/08/28 02:13:40;;;;;;;43.13;40.07;;;;;;;12.40;100.00;102577.77;1934975;74;26188;-76
2021/08/28 02:19:10;;;;;;;42.23;38.63;;;;;;;12.55;100.00;102567.38;1972130;73;33402;-76
2021/08/28 02:24:59;;;;;;;41.93;38.67;;;;;;;12.62;100.00;102571.66;1982960;71;32809;-75
2021/08/28 02:27:35;;;;;;;42.30;38.80;;;;;;;12.59;100.00;102580.55;1961012;72;26208;-76
2021/08/28 02:33:22;;;;;;;43.83;40.30;;;;;;;12.47;100.00;102565.87;2016364;71;32827;-74
2021/08/28 02:38:49;;;;;;;43.83;40.33;;;;;;;12.43;100.00;102570.28;1972375;73;33399;-76
2021/08/28 02:44:16;;;;;;;42.47;39.23;;;;;;;12.51;100.00;102571.23;1971961;73;32926;-72
2021/08/28 02:50:03;;;;;;;42.23;38.97;;;;;;;12.50;100.00;102578.44;2016311;71;32819;-74
2021/08/28 02:55:50;;;;;;;43.40;40.20;;;;;;;12.62;100.00;102573.63;2014149;71;32909;-73
2021/08/28 03:01:17;;;;;;;43.27;40.00;;;;;;;13.02;100.00;102567.19;1971751;73;32918;-74
2021/08/28 03:06:42;;;;;;;45.17;41.23;;;;;;;12.83;100.00;102567.23;1971821;73;33032;-74
2021/08/28 03:12:09;;;;;;;44.60;40.80;;;;;;;12.97;100.00;102571.84;1972117;73;33454;-76
2021/08/28 03:17:33;;;;;;;44.80;41.10;;;;;;;13.26;100.00;102565.56;1972085;73;33543;-76
2021/08/28 03:22:59;;;;;;;44.83;41.03;;;;;;;13.36;100.00;102563.71;1972108;73;32901;-76
2021/08/28 03:28:25;;;;;;;45.43;41.00;;;;;;;13.49;100.00;102561.05;1972116;73;32910;-76
2021/08/28 03:33:52;;;;;;;45.43;41.13;;;;;;;13.49;100.00;102559.11;1972114;73;32930;-76
2021/08/28 03:39:39;;;;;;;46.03;41.30;;;;;;;13.68;100.00;102558.20;2013888;71;33498;-75
2021/08/28 03:45:29;;;;;;;44.70;40.30;;;;;;;13.69;100.00;102558.49;2014130;71;32997;-76
2021/08/28 03:51:17;;;;;;;45.20;41.37;;;;;;;13.82;100.00;102563.62;2015070;71;33018;-76
2021/08/28 03:56:41;;;;;;;45.43;41.30;;;;;;;13.81;100.00;102561.95;1972312;73;33400;-77
2021/08/28 04:02:25;;;;;;;44.83;40.83;;;;;;;13.91;100.00;102552.80;1884119;71;39552;-75
2021/08/28 04:08:11;;;;;;;46.80;42.53;;;;;;;13.99;100.00;102557.92;1996202;71;32884;-81
2021/08/28 04:13:55;;;;;;;46.90;42.17;;;;;;;14.11;100.00;102558.03;2001519;71;32899;-72
2021/08/28 04:19:19;;;;;;;46.77;42.47;;;;;;;14.13;100.00;102557.73;1971841;73;32960;-75
2021/08/28 04:24:48;;;;;;;45.93;41.73;;;;;;;14.11;100.00;102551.59;1971716;73;32916;-72
2021/08/28 04:30:35;;;;;;;45.23;41.37;;;;;;;13.97;100.00;102555.94;2016330;71;32842;-76
2021/08/28 04:36:00;;;;;;;47.93;43.50;;;;;;;13.96;100.00;102558.44;1971796;73;32979;-75
2021/08/28 04:41:44;;;;;;;46.63;42.47;;;;;;;14.02;100.00;102558.23;2015899;71;33023;-76
2021/08/28 04:47:08;;;;;;;46.37;42.23;;;;;;;14.15;100.00;102559.73;1971893;73;33379;-73
2021/08/28 04:52:33;;;;;;;45.70;41.77;;;;;;;14.16;100.00;102562.81;1971920;73;33459;-75
2021/08/28 04:58:17;;;;;;;47.90;43.60;;;;;;;14.18;100.00;102566.17;1995686;71;33720;-76
2021/08/28 05:03:48;;;;;;;49.70;44.93;;;;;;;14.14;100.00;102563.62;1972001;73;33493;-76
2021/08/28 05:09:12;;;;;;;49.47;45.27;;;;;;;14.31;100.00;102571.30;1972066;72;33436;-75
2021/08/28 05:14:39;;;;;;;48.03;43.43;;;;;;;14.46;100.00;102577.02;1971976;73;33543;-75
2021/08/28 05:20:06;;;;;;;46.60;42.70;;;;;;;14.53;100.00;102577.64;1971900;73;32910;-75
2021/08/28 05:25:49;;;;;;;47.77;43.50;;;;;;;14.48;100.00;102583.75;2016175;71;32926;-75
2021/08/28 05:31:20;;;;;;;49.50;45.30;;;;;;;14.45;100.00;102589.34;1971850;73;33048;-72
2021/08/28 05:37:04;;;;;;;48.37;44.47;;;;;;;14.52;100.00;102592.73;2016339;71;32899;-75
2021/08/28 05:42:49;;;;;;;49.20;45.40;;;;;;;14.59;100.00;102601.72;2008582;71;32943;-74
2021/08/28 05:48:13;;;;;;;50.53;46.00;;;;;;;14.65;100.00;102608.20;1971878;73;33018;-73
2021/08/28 05:53:57;;;;;;;50.40;46.30;;;;;;;14.84;100.00;102606.66;2014321;71;32839;-77
2021/08/28 05:59:41;;;;;;;48.80;44.87;;;;;;;14.88;100.00;102605.55;2019104;71;32939;-76
2021/08/28 06:05:26;;;;;;;50.63;46.53;;;;;;;14.86;100.00;102605.81;2016042;70;32889;-75
2021/08/28 06:10:51;;;;;;;49.20;45.40;;;;;;;15.04;100.00;102606.75;1971942;73;33451;-73
2021/08/28 06:16:16;;;;;;;48.17;44.27;;;;;;;15.07;100.00;102608.15;1971949;73;33500;-72
2021/08/28 06:21:43;;;;;;;47.10;43.43;;;;;;;15.11;100.00;102614.04;1966348;71;32987;-72
2021/08/28 06:27:27;;;;;;;49.30;45.07;;;;;;;15.18;100.00;102605.70;2001154;71;32944;-76
2021/08/28 06:33:11;;;;;;;48.17;44.47;;;;;;;15.20;100.00;102602.61;2016303;71;32958;-73
2021/08/28 06:38:37;;;;;;;45.47;41.83;;;;;;;15.09;100.00;102608.73;1972091;73;33569;-72
2021/08/28 06:44:02;;;;;;;48.73;44.83;;;;;;;15.18;100.00;102607.66;1971942;73;32960;-74
2021/08/28 06:49:46;;;;;;;48.50;44.67;;;;;;;15.52;100.00;102610.33;2007712;71;32749;-75
2021/08/28 06:55:11;;;;;;;49.87;45.77;;;;;;;15.67;100.00;102604.75;1971972;73;33006;-76
2021/08/28 07:00:56;;;;;;;48.23;44.07;;;;;;;15.69;100.00;102608.13;1983027;71;33501;-74
2021/08/28 07:06:40;;;;;;;48.07;44.07;;;;;;;15.72;100.00;102614.58;2015792;71;32934;-70
2021/08/28 07:12:24;;;;;;;49.27;45.27;;;;;;;15.65;100.00;102613.16;2001722;71;32930;-74
2021/08/28 07:18:09;;;;;;;48.70;45.00;;;;;;;15.79;100.00;102622.14;2015951;71;32834;-73
2021/08/28 07:23:34;;;;;;;50.97;47.23;;;;;;;15.81;100.00;102633.09;1971912;72;33366;-73
2021/08/28 07:28:58;;;;;;;50.77;46.87;;;;;;;15.83;100.00;102627.48;1971887;73;33510;-72
2021/08/28 07:34:23;;;;;;;49.03;45.13;;;;;;;15.92;100.00;102624.97;1972044;73;30968;-72
2021/08/28 07:39:48;;;;;;;51.20;47.10;;;;;;;16.26;100.00;102608.45;1971729;73;32985;-73
2021/08/28 07:45:14;;;;;;;51.30;47.10;;;;;;;16.39;100.00;102609.28;1971833;72;31481;-73
2021/08/28 07:50:39;;;;;;;52.40;48.07;;;;;;;16.50;100.00;102611.53;1971734;73;32913;-74
2021/08/28 07:56:04;;;;;;;50.37;46.27;;;;;;;16.33;100.00;102619.69;1971963;73;33425;-74
2021/08/28 08:01:28;;;;;;;49.43;45.57;;;;;;;16.36;100.00;102612.11;1972033;73;33476;-74
2021/08/28 08:06:53;;;;;;;48.90;44.47;;;;;;;16.57;100.00;102613.48;1971944;73;33433;-70
2021/08/28 08:12:18;;;;;;;50.17;46.17;;;;;;;16.77;100.00;102612.09;1971974;73;32913;-72
2021/08/28 08:17:43;;;;;;;48.80;44.93;;;;;;;16.72;100.00;102624.73;1972009;73;33492;-75
2021/08/28 08:23:09;;;;;;;50.27;46.10;;;;;;;16.89;100.00;102620.20;1936967;74;33128;-75
2021/08/28 08:28:34;;;;;;;48.07;44.17;;;;;;;16.94;100.00;102629.45;1971877;73;33352;-74
2021/08/28 08:34:05;;;;;;;48.20;44.40;;;;;;;17.12;100.00;102625.16;1971778;73;32923;-72
2021/08/28 08:39:29;;;;;;;47.27;43.37;;;;;;;17.07;100.00;102622.39;1971733;73;33005;-72
2021/08/28 08:44:57;;;;;;;46.97;43.17;;;;;;;17.17;100.00;102617.56;1971781;73;31041;-72
2021/08/28 08:50:42;;;;;;;45.77;42.20;;;;;;;17.39;100.00;102633.20;2016092;71;31372;-75
2021/08/28 08:56:09;;;;;;;45.60;42.40;;;;;;;17.47;100.00;102624.17;1971975;73;30986;-71
2021/08/28 09:01:34;;;;;;;43.77;40.77;;;;;;;17.30;100.00;102617.52;1971908;72;31128;-73
2021/08/28 09:06:59;;;;;;;40.87;38.13;;;;;;;17.82;100.00;102612.77;1971718;73;33483;-72
2021/08/28 09:12:25;;;;;;;40.80;37.97;;;;;;;18.39;100.00;102596.56;1971841;73;30973;-71
2021/08/28 09:18:01;;;;;;;40.17;37.47;;;;;;;18.77;100.00;102597.62;1971948;73;31471;-72
2021/08/28 09:23:27;;;;;;;40.63;37.97;;;;;;;18.36;100.00;102592.91;1971760;73;30954;-73
2021/08/28 09:28:57;;;;;;;42.70;39.73;;;;;;;18.17;100.00;102599.01;1971869;73;30973;-71
2021/08/28 09:34:37;;;;;;;41.83;39.17;;;;;;;18.46;100.00;102601.84;1971695;73;32909;-72
2021/08/28 09:40:04;;;;;;;40.70;37.80;;;;;;;18.62;100.00;102585.94;1971671;73;31116;-74
2021/08/28 09:45:33;;;;;;;39.67;37.00;;;;;;;19.01;100.00;102585.78;1971938;72;31577;-77
2021/08/28 09:51:04;;;;;;;40.60;38.10;;;;;;;18.80;100.00;102591.38;1971774;73;31066;-73
2021/08/28 09:56:29;;;;;;;36.83;34.47;;;;;;;19.04;100.00;102586.58;1971788;73;31034;-72
2021/08/28 10:01:53;;;;;;;39.13;36.53;;;;;;;19.26;100.00;102581.80;1971643;73;31458;-73
2021/08/28 10:07:24;;;;;;;39.67;37.13;;;;;;;19.03;100.00;102591.12;1972006;73;31451;-73
2021/08/28 10:12:52;;;;;;;43.73;41.13;;;;;;;18.73;100.00;102587.25;1971828;73;31566;-75
2021/08/28 10:18:21;;;;;;;41.03;38.70;;;;;;;18.91;100.00;102584.48;1971903;73;33402;-74
2021/08/28 10:23:52;;;;;;;54.60;51.30;;;;;;;19.10;100.00;102590.19;1971812;73;30989;-73
2021/08/28 10:29:15;;;;;;;43.57;40.90;;;;;;;19.43;100.00;102590.61;1971863;73;31451;-72
2021/08/28 10:34:41;;;;;;;50.43;47.73;;;;;;;19.33;100.00;102582.86;1971714;73;31007;-73
2021/08/28 10:40:10;;;;;;;39.43;37.23;;;;;;;19.47;100.00;102584.64;1971687;73;31004;-74
2021/08/28 10:45:40;;;;;;;49.70;47.23;;;;;;;19.80;100.00;102579.94;1971768;73;31071;-72
2021/08/28 10:51:07;;;;;;;44.23;41.73;;;;;;;19.87;100.00;102571.08;1971708;73;31055;-73
2021/08/28 10:56:44;;;;;;;38.30;36.20;;;;;;;20.19;100.00;102571.12;1971918;73;30935;-73
2021/08/28 11:02:16;;;;;;;45.90;43.43;;;;;;;19.77;100.00;102580.53;1971698;72;30982;-73
2021/08/28 11:07:45;;;;;;;34.60;32.70;;;;;;;20.18;100.00;102577.06;1971807;73;30941;-73
2021/08/28 11:13:12;;;;;;;33.47;31.67;;;;;;;20.30;100.00;102571.80;1971751;73;31034;-72
2021/08/28 11:18:44;;;;;;;42.60;39.87;;;;;;;20.34;100.00;102572.86;1971765;73;30968;-73
2021/08/28 11:24:14;;;;;;;33.73;32.07;;;;;;;20.94;100.00;102564.36;1971977;73;33398;-73
2021/08/28 11:29:50;;;;;;;30.70;29.27;;;;;;;20.92;100.00;102560.45;1971650;73;31089;-73
2021/08/28 11:35:18;;;;;;;34.47;32.70;;;;;;;20.56;100.00;102563.13;1971753;73;30950;-71
2021/08/28 11:40:43;;;;;;;34.37;32.37;;;;;;;20.15;100.00;102570.03;1971771;73;31017;-73
2021/08/28 11:46:11;;;;;;;35.13;33.20;;;;;;;20.07;100.00;102586.86;1971827;72;31063;-73
2021/08/28 11:51:38;;;;;;;34.33;32.43;;;;;;;19.61;100.00;102602.21;1971985;73;31468;-71
2021/08/28 11:57:03;;;;;;;35.07;33.37;;;;;;;19.24;100.00;102600.16;1971699;73;30928;-71
2021/08/28 12:02:32;;;;;;;31.47;29.93;;;;;;;19.30;100.00;102591.33;1971773;73;31033;-74
2021/08/28 12:08:05;;;;;;;33.17;31.30;;;;;;;19.67;100.00;102584.09;1971963;73;31545;-72
2021/08/28 12:13:31;;;;;;;34.80;33.00;;;;;;;20.33;100.00;102566.94;1971825;73;30949;-73
2021/08/28 12:19:01;;;;;;;32.67;31.10;;;;;;;20.89;100.00;102567.55;1971696;73;31021;-73
2021/08/28 12:24:28;;;;;;;31.53;29.70;;;;;;;21.09;100.00;102564.06;1971712;73;31028;-75
2021/08/28 12:29:55;;;;;;;31.57;30.00;;;;;;;21.08;100.00;102560.97;1971974;73;31171;-74
2021/08/28 12:35:20;;;;;;;29.77;28.27;;;;;;;21.03;100.00;102566.72;1971949;73;30964;-74
2021/08/28 12:40:45;;;;;;;109.97;62.87;;;;;;;20.96;100.00;102564.90;1971869;73;30952;-75
2021/08/28 12:46:09;;;;;;;182.80;87.27;;;;;;;20.76;100.00;102575.44;1971989;73;31035;-74
2021/08/28 12:51:34;;;;;;;70.73;55.23;;;;;;;20.46;100.00;102585.90;1972017;73;30940;-74
2021/08/28 12:57:04;;;;;;;58.37;51.17;;;;;;;20.61;100.00;102587.61;1971946;72;31443;-75
2021/08/28 13:02:38;;;;;;;37.67;35.53;;;;;;;20.72;100.00;102580.61;1971917;73;31087;-74
2021/08/28 13:08:04;;;;;;;35.50;33.40;;;;;;;20.85;100.00;102561.42;1972086;73;31414;-73
2021/08/28 13:13:39;;;;;;;35.10;33.23;;;;;;;20.57;100.00;102559.17;1972030;73;31428;-72
2021/08/28 13:19:15;;;;;;;35.60;33.07;;;;;;;20.66;100.00;102563.52;1971800;73;31003;-75
2021/08/28 13:24:43;;;;;;;34.50;32.70;;;;;;;20.83;100.00;102560.92;1971800;73;30941;-74
2021/08/28 13:30:20;;;;;;;33.33;31.53;;;;;;;20.80;100.00;102553.89;1971902;73;31034;-72
2021/08/28 13:35:50;;;;;;;33.57;31.67;;;;;;;20.72;100.00;102553.20;1971832;73;30976;-73
2021/08/28 13:41:16;;;;;;;32.37;30.47;;;;;;;21.03;100.00;102548.34;1971934;73;31065;-73
2021/08/28 13:46:40;;;;;;;28.83;27.27;;;;;;;21.06;100.00;102551.38;1971987;73;31432;-73
2021/08/28 13:52:07;;;;;;;27.40;25.90;;;;;;;21.08;100.00;102535.53;1971782;73;30998;-75
2021/08/28 13:57:32;;;;;;;29.60;27.90;;;;;;;21.17;100.00;102540.73;1971770;73;30938;-74
2021/08/28 14:02:57;;;;;;;30.40;28.20;;;;;;;21.21;100.00;102540.36;1971906;73;31410;-74
2021/08/28 14:08:21;;;;;;;30.97;29.13;;;;;;;21.36;100.00;102532.94;1971743;73;31546;-74
2021/08/28 14:13:46;;;;;;;28.63;27.03;;;;;;;21.36;100.00;102527.28;1971919;73;30953;-74
2021/08/28 14:19:11;;;;;;;27.90;26.13;;;;;;;21.33;100.00;102525.94;1971990;73;31485;-73
2021/08/28 14:24:36;;;;;;;26.63;25.23;;;;;;;21.38;100.00;102522.73;1971935;73;31549;-73
2021/08/28 14:30:01;;;;;;;27.20;25.80;;;;;;;21.26;100.00;102523.30;1972077;73;33481;-73
2021/08/28 14:35:26;;;;;;;27.20;25.70;;;;;;;21.08;100.00;102522.81;1971808;73;31016;-73
2021/08/28 14:40:51;;;;;;;30.00;28.13;;;;;;;20.89;100.00;102523.77;1971770;72;31045;-73
2021/08/28 14:46:15;;;;;;;31.07;29.47;;;;;;;20.47;100.00;102530.27;1971755;73;31026;-72
2021/08/28 14:51:43;;;;;;;28.03;26.63;;;;;;;20.40;100.00;102523.07;1971911;73;31424;-72
2021/08/28 14:57:08;;;;;;;28.63;27.03;;;;;;;20.43;100.00;102518.77;1971968;73;31080;-74
2021/08/28 15:02:33;;;;;;;27.43;26.00;;;;;;;20.56;100.00;102518.52;1971942;73;30954;-74
2021/08/28 15:07:59;;;;;;;26.43;25.03;;;;;;;20.58;100.00;102512.01;1971920;73;31503;-73
2021/08/28 15:13:23;;;;;;;27.83;26.33;;;;;;;20.66;100.00;102514.09;1971787;73;30938;-73
2021/08/28 15:18:48;;;;;;;29.77;28.13;;;;;;;20.70;100.00;102504.69;1971856;73;30996;-73
2021/08/28 15:24:12;;;;;;;22.60;21.60;;;;;;;21.02;100.00;102512.77;1971799;73;31091;-74
2021/08/28 15:29:36;;;;;;;23.10;21.90;;;;;;;21.21;100.00;102499.38;1971751;73;31037;-73
2021/08/28 15:35:02;;;;;;;24.70;23.30;;;;;;;21.21;100.00;102497.97;1971948;72;31056;-74
2021/08/28 15:40:27;;;;;;;23.73;22.27;;;;;;;21.31;100.00;102484.99;1971810;73;31072;-72
2021/08/28 15:45:52;;;;;;;21.67;20.67;;;;;;;21.20;100.00;102503.35;1971741;73;30969;-73
2021/08/28 15:51:17;;;;;;;21.97;20.73;;;;;;;20.96;100.00;102500.75;1971702;73;31076;-76
2021/08/28 15:56:42;;;;;;;22.17;20.93;;;;;;;20.84;100.00;102506.08;1971948;73;31035;-76
2021/08/28 16:02:07;;;;;;;22.83;21.73;;;;;;;20.86;100.00;102506.61;1971964;73;31048;-73
2021/08/28 16:07:33;;;;;;;24.67;23.27;;;;;;;20.73;100.00;102511.69;1971793;73;31042;-75
2021/08/28 16:12:59;;;;;;;22.70;21.60;;;;;;;20.71;100.00;102516.22;1971834;73;30966;-72
2021/08/28 16:18:24;;;;;;;22.83;21.67;;;;;;;20.83;100.00;102512.90;1971851;72;32994;-72
2021/08/28 16:23:49;;;;;;;22.97;21.87;;;;;;;20.83;100.00;102510.91;1971864;73;31533;-73
2021/08/28 16:29:14;;;;;;;23.70;22.57;;;;;;;20.88;100.00;102509.38;1971765;73;31036;-76
2021/08/28 16:34:38;;;;;;;24.37;23.07;;;;;;;21.04;100.00;102513.30;1971876;73;31084;-73
2021/08/28 16:40:03;;;;;;;25.60;24.10;;;;;;;20.94;100.00;102520.57;1971650;73;31074;-72
2021/08/28 16:45:29;;;;;;;25.20;23.80;;;;;;;20.71;100.00;102528.13;1971963;73;33326;-73
2021/08/28 16:50:54;;;;;;;25.50;24.20;;;;;;;20.71;100.00;102523.89;1971926;73;32317;-75
2021/08/28 16:56:18;;;;;;;25.77;24.47;;;;;;;20.61;100.00;102519.84;1971759;73;31009;-71
2021/08/28 17:01:49;;;;;;;24.83;23.43;;;;;;;20.52;100.00;102522.55;1971921;73;31599;-74
2021/08/28 17:07:13;;;;;;;23.57;22.33;;;;;;;20.41;100.00;102525.29;1972074;73;30971;-72
2021/08/28 17:12:38;;;;;;;24.07;22.83;;;;;;;20.53;100.00;102516.34;1972074;72;30959;-78
2021/08/28 17:18:05;;;;;;;23.80;22.40;;;;;;;20.44;100.00;102521.30;1971978;72;31018;-79
2021/08/28 17:23:30;;;;;;;23.40;22.30;;;;;;;20.43;100.00;102516.80;1972126;73;31463;-71
2021/08/28 17:28:55;;;;;;;25.03;23.60;;;;;;;20.23;100.00;102529.84;1972173;73;33476;-76
2021/08/28 17:34:20;;;;;;;24.80;23.50;;;;;;;20.30;100.00;102533.70;1971952;73;30989;-72
2021/08/28 17:39:45;;;;;;;26.27;24.57;;;;;;;20.24;100.00;102527.83;1972152;73;30953;-78
2021/08/28 17:45:10;;;;;;;25.07;23.63;;;;;;;20.22;100.00;102531.56;1971974;73;30966;-79
2021/08/28 17:50:37;;;;;;;26.80;25.40;;;;;;;20.14;100.00;102528.88;1971948;73;30998;-72
2021/08/28 17:56:02;;;;;;;26.50;25.10;;;;;;;20.50;100.00;102526.25;1972123;73;31472;-71
2021/08/28 18:01:26;;;;;;;26.27;24.77;;;;;;;20.61;100.00;102517.86;1972003;73;30988;-80
2021/08/28 18:06:51;;;;;;;27.67;26.27;;;;;;;20.09;100.00;102527.55;1972062;73;30922;-73
2021/08/28 18:12:15;;;;;;;27.67;26.17;;;;;;;19.84;100.00;102526.58;1972150;73;31549;-79
2021/08/28 18:17:40;;;;;;;29.13;27.53;;;;;;;19.65;100.00;102529.97;1972190;73;30934;-72
2021/08/28 18:23:07;;;;;;;29.00;27.40;;;;;;;19.63;100.00;102530.87;1972203;73;31475;-72
2021/08/28 18:28:32;;;;;;;30.27;28.57;;;;;;;19.58;100.00;102545.03;1971914;73;31013;-73
2021/08/28 18:34:16;;;;;;;30.57;28.87;;;;;;;19.49;100.00;102549.11;2016218;71;30854;-79
2021/08/28 18:40:01;;;;;;;30.63;29.03;;;;;;;19.40;100.00;102555.13;2016230;71;30894;-78
2021/08/28 18:45:26;;;;;;;32.40;30.67;;;;;;;19.25;100.00;102559.58;1951917;73;31089;-80
2021/08/28 18:50:50;;;;;;;35.73;33.80;;;;;;;19.04;100.00;102562.64;1972251;73;31400;-79
2021/08/28 18:56:15;;;;;;;38.63;36.37;;;;;;;18.82;100.00;102576.45;1972165;73;31447;-73
2021/08/28 19:01:39;;;;;;;39.23;36.80;;;;;;;18.78;100.00;102585.22;1972016;73;31038;-72
2021/08/28 19:07:05;;;;;;;39.47;37.13;;;;;;;18.67;100.00;102595.47;1972124;73;30956;-80
2021/08/28 19:12:30;;;;;;;37.13;35.13;;;;;;;18.51;100.00;102592.78;1972177;73;30998;-79
2021/08/28 19:17:54;;;;;;;40.50;38.37;;;;;;;18.19;100.00;102605.16;1971922;73;30951;-79
2021/08/28 19:23:19;;;;;;;41.80;39.47;;;;;;;18.03;100.00;102612.05;1972174;73;31440;-72
2021/08/28 19:28:44;;;;;;;43.47;41.07;;;;;;;17.62;100.00;102613.74;1972306;73;30986;-74
2021/08/28 19:34:08;;;;;;;42.33;39.73;;;;;;;17.61;100.00;102621.89;1972004;73;31083;-75
2021/08/28 19:39:33;;;;;;;43.67;41.07;;;;;;;17.38;100.00;102628.70;1971932;73;30976;-72
2021/08/28 19:44:57;;;;;;;42.23;39.73;;;;;;;17.21;100.00;102629.06;1971892;72;30984;-70
2021/08/28 19:50:22;;;;;;;42.10;39.50;;;;;;;17.32;100.00;102634.94;1972198;73;31477;-78
2021/08/28 19:55:46;;;;;;;42.10;39.50;;;;;;;17.13;100.00;102631.91;1971922;73;31037;-72
2021/08/28 20:01:14;;;;;;;40.73;38.23;;;;;;;17.01;100.00;102639.81;1972070;73;31070;-78
2021/08/28 20:06:38;;;;;;;42.07;39.53;;;;;;;16.85;100.00;102642.38;1972209;73;31547;-74
2021/08/28 20:12:08;;;;;;;43.33;40.63;;;;;;;16.75;100.00;102636.22;1972184;73;31041;-78
2021/08/28 20:17:33;;;;;;;42.80;40.03;;;;;;;16.72;100.00;102627.53;1971909;73;31050;-74
2021/08/28 20:22:58;;;;;;;41.23;38.53;;;;;;;16.32;100.00;102638.19;1971828;73;33039;-71
2021/08/28 20:28:23;;;;;;;42.07;39.50;;;;;;;16.30;100.00;102627.23;1971879;73;32979;-72
2021/08/28 20:33:48;;;;;;;41.53;39.03;;;;;;;16.27;100.00;102628.36;1972168;73;33475;-75
2021/08/28 20:39:12;;;;;;;43.83;41.13;;;;;;;16.30;100.00;102631.45;1971966;73;33001;-80
2021/08/28 20:44:37;;;;;;;41.73;39.13;;;;;;;16.34;100.00;102628.95;1971969;73;30961;-77
2021/08/28 20:50:04;;;;;;;41.27;38.77;;;;;;;16.14;100.00;102639.58;1971901;73;32969;-76
2021/08/28 20:55:29;;;;;;;42.47;39.67;;;;;;;16.20;100.00;102639.03;1971968;73;30958;-76
2021/08/28 21:00:54;;;;;;;42.30;39.70;;;;;;;16.02;100.00;102643.77;1971976;73;32940;-77
2021/08/28 21:06:18;;;;;;;41.80;39.20;;;;;;;15.80;100.00;102647.66;1971922;73;32921;-75
2021/08/28 21:11:42;;;;;;;43.97;40.97;;;;;;;15.81;100.00;102644.30;1971902;73;33136;-75
2021/08/28 21:17:07;;;;;;;44.10;41.37;;;;;;;15.83;100.00;102663.91;1971863;72;33003;-76
2021/08/28 21:22:32;;;;;;;44.70;41.80;;;;;;;15.68;100.00;102661.08;1948919;73;33585;-72
2021/08/28 21:27:55;;;;;;;44.80;42.00;;;;;;;15.70;100.00;102657.42;1971886;72;32926;-73
2021/08/28 21:33:20;;;;;;;47.50;44.57;;;;;;;15.56;100.00;102663.28;1972094;73;32991;-72
2021/08/28 21:38:48;;;;;;;46.20;43.57;;;;;;;15.60;100.00;102672.82;1972010;73;32919;-76
2021/08/28 21:44:14;;;;;;;47.50;44.73;;;;;;;15.68;100.00;102667.23;1971974;73;32916;-73
2021/08/28 21:49:38;;;;;;;49.00;45.83;;;;;;;15.43;100.00;102674.41;1971882;72;32979;-72
2021/08/28 21:55:06;;;;;;;48.50;45.47;;;;;;;15.24;100.00;102687.73;1971890;73;32995;-72
2021/08/28 22:00:33;;;;;;;49.53;46.47;;;;;;;15.04;100.00;102680.92;1971928;73;32891;-77
2021/08/28 22:05:58;;;;;;;47.07;43.83;;;;;;;15.02;100.00;102689.28;1972181;73;33513;-72
2021/08/28 22:11:25;;;;;;;44.60;41.57;;;;;;;14.98;100.00;102688.98;1971940;73;32921;-73
2021/08/28 22:16:50;;;;;;;47.20;44.30;;;;;;;14.94;100.00;102688.40;1971906;72;32906;-78
2021/08/28 22:22:15;;;;;;;46.07;43.07;;;;;;;14.90;100.00;102688.10;1963606;71;33405;-72
2021/08/28 22:27:40;;;;;;;44.87;41.87;;;;;;;14.80;100.00;102681.61;1971923;73;32945;-78
2021/08/28 22:33:07;;;;;;;45.40;42.30;;;;;;;14.75;100.00;102676.81;1972079;73;33055;-79
2021/08/28 22:38:35;;;;;;;44.80;41.70;;;;;;;14.53;100.00;102679.72;1971954;73;32978;-78
2021/08/28 22:43:59;;;;;;;44.30;41.40;;;;;;;14.49;100.00;102668.78;1971872;73;33119;-72
2021/08/28 22:49:24;;;;;;;45.73;42.63;;;;;;;14.55;100.00;102675.23;1972088;72;33621;-78
2021/08/28 22:54:48;;;;;;;45.00;41.73;;;;;;;14.46;100.00;102664.28;1972117;73;33529;-78
2021/08/28 23:00:15;;;;;;;44.30;41.37;;;;;;;14.27;100.00;102669.95;1972263;73;33410;-78
2021/08/28 23:05:40;;;;;;;44.73;41.70;;;;;;;14.35;100.00;102661.06;1972123;73;33532;-78
2021/08/28 23:11:05;;;;;;;45.77;42.80;;;;;;;14.38;100.00;102663.35;1972115;73;33508;-72
2021/08/28 23:16:29;;;;;;;45.53;42.23;;;;;;;14.36;100.00;102666.44;1971895;73;33054;-72
2021/08/28 23:21:54;;;;;;;48.60;45.33;;;;;;;13.93;100.00;102667.39;1972099;71;32950;-78
2021/08/28 23:27:19;;;;;;;46.07;42.73;;;;;;;14.25;100.00;102661.00;1971992;73;32921;-72
2021/08/28 23:32:44;;;;;;;46.40;43.20;;;;;;;14.20;100.00;102659.55;1971933;73;32952;-78
2021/08/28 23:38:09;;;;;;;44.90;41.97;;;;;;;14.10;100.00;102667.27;1971909;73;32970;-78
2021/08/28 23:43:34;;;;;;;48.57;45.37;;;;;;;13.77;100.00;102661.36;1972001;73;33037;-72
2021/08/28 23:48:59;;;;;;;45.67;42.67;;;;;;;13.84;100.00;102666.72;1971897;72;33038;-72
2021/08/28 23:54:23;;;;;;;47.33;44.23;;;;;;;14.20;100.00;102673.52;1971856;73;32901;-72
2021/08/28 23:59:48;;;;;;;51.20;47.50;;;;;;;13.84;100.00;102662.53;1972145;73;33389;-73
